createdAt,value
2023-02-03T00:01:55.674Z,2.03
2023-02-03T00:04:22.483Z,3.67
2023-02-03T00:06:49.315Z,3.08
2023-02-03T00:09:16.360Z,3.72
2023-02-03T00:11:43.150Z,3.72
2023-02-03T00:14:09.933Z,1.73
2023-02-03T00:16:36.836Z,3.28
2023-02-03T00:19:03.944Z,3.28
2023-02-03T00:21:30.758Z,3.57
2023-02-03T00:23:57.544Z,2.55
2023-02-03T00:26:25.949Z,2.97
2023-02-03T00:28:52.782Z,3.50
2023-02-03T00:31:23.973Z,2.83
2023-02-03T00:33:56.040Z,3.17
2023-02-03T00:36:24.568Z,2.40
2023-02-03T00:38:51.424Z,2.90
2023-02-03T00:41:19.435Z,4.40
2023-02-03T00:43:46.271Z,2.00
2023-02-03T00:46:13.642Z,2.67
2023-02-03T00:48:40.436Z,2.03
2023-02-03T00:51:07.483Z,3.10
2023-02-03T00:53:34.302Z,2.40
2023-02-03T00:56:01.102Z,2.95
2023-02-03T00:58:27.901Z,2.77
2023-02-03T01:00:57.115Z,1.83
2023-02-03T01:03:24.230Z,1.88
2023-02-03T01:05:51.443Z,2.60
2023-02-03T01:08:18.481Z,1.92
2023-02-03T01:10:45.312Z,2.20
2023-02-03T01:13:12.278Z,2.15
2023-02-03T01:15:45.825Z,1.90
2023-02-03T01:18:12.654Z,2.25
2023-02-03T01:20:39.494Z,2.40
2023-02-03T01:23:06.344Z,2.90
2023-02-03T01:25:36.118Z,2.33
2023-02-03T01:28:02.986Z,2.90
2023-02-03T01:30:30.056Z,2.97
2023-02-03T01:32:57.146Z,0.83
2023-02-03T01:35:23.973Z,2.90
2023-02-03T01:37:50.741Z,2.40
2023-02-03T01:40:18.287Z,2.13
2023-02-03T01:42:45.127Z,2.27
2023-02-03T01:45:13.947Z,3.05
2023-02-03T01:47:52.206Z,1.95
2023-02-03T01:50:25.879Z,2.95
2023-02-03T01:52:59.126Z,2.57
2023-02-03T01:55:33.089Z,1.63
2023-02-03T01:58:04.339Z,1.40
2023-02-03T02:00:31.428Z,2.58
2023-02-03T02:03:00.997Z,2.03
2023-02-03T02:05:50.713Z,1.63
2023-02-03T02:08:19.928Z,2.23
2023-02-03T02:10:47.291Z,1.80
2023-02-03T02:13:15.783Z,0.90
2023-02-03T02:15:59.065Z,1.37
2023-02-03T02:18:43.962Z,1.83
2023-02-03T02:21:24.291Z,0.50
2023-02-03T02:24:20.621Z,2.23
2023-02-03T02:27:07.906Z,1.33
2023-02-03T02:29:46.563Z,2.33
2023-02-03T02:32:19.396Z,1.00
2023-02-03T02:35:12.043Z,1.03
2023-02-03T02:38:11.944Z,1.20
2023-02-03T02:41:05.440Z,1.60
2023-02-03T02:43:50.104Z,1.60
2023-02-03T02:46:25.692Z,1.63
2023-02-03T02:49:01.639Z,1.73
2023-02-03T02:51:30.130Z,1.60
2023-02-03T02:54:01.581Z,1.93
2023-02-03T02:56:31.786Z,2.60
2023-02-03T02:59:02.340Z,1.50
2023-02-03T03:01:29.271Z,1.65
2023-02-03T03:03:57.758Z,1.90
2023-02-03T03:06:39.296Z,0.90
2023-02-03T03:12:01.783Z,1.20
2023-02-03T03:14:32.345Z,1.70
2023-02-03T03:17:08.803Z,1.60
2023-02-03T03:19:40.127Z,1.90
2023-02-03T03:22:11.233Z,2.28
2023-02-03T03:24:45.820Z,2.13
2023-02-03T03:27:23.659Z,1.57
2023-02-03T03:30:17.776Z,2.50
2023-02-03T03:32:45.134Z,1.73
2023-02-03T03:35:12.284Z,2.17
2023-02-03T03:37:59.907Z,2.70
2023-02-03T03:40:34.051Z,1.53
2023-02-03T03:43:10.927Z,1.87
2023-02-03T03:45:53.269Z,1.73
2023-02-03T03:48:27.981Z,1.30
2023-02-03T03:51:04.324Z,1.30
2023-02-03T03:53:34.471Z,1.03
2023-02-03T03:56:03.717Z,0.90
2023-02-03T03:58:32.429Z,1.10
2023-02-03T04:01:04.215Z,1.10
2023-02-03T04:03:38.696Z,1.23
2023-02-03T04:06:06.421Z,1.47
2023-02-03T04:08:33.233Z,1.40
2023-02-03T04:10:59.979Z,1.13
2023-02-03T04:13:26.801Z,1.67
2023-02-03T04:15:53.674Z,1.50
2023-02-03T04:18:20.549Z,1.47
2023-02-03T04:20:47.328Z,1.33
2023-02-03T04:23:14.215Z,1.90
2023-02-03T04:25:40.992Z,1.60
2023-02-03T04:28:07.829Z,1.87
2023-02-03T04:30:34.646Z,2.67
2023-02-03T04:33:01.487Z,1.63
2023-02-03T04:35:28.368Z,2.07
2023-02-03T04:37:55.145Z,2.27
2023-02-03T04:40:21.884Z,1.40
2023-02-03T04:42:48.681Z,1.40
2023-02-03T04:45:15.478Z,1.70
2023-02-03T04:47:42.244Z,1.20
2023-02-03T04:50:09.544Z,1.83
2023-02-03T04:52:36.375Z,0.90
2023-02-03T04:55:04.024Z,1.67
2023-02-03T04:57:31.047Z,2.20
2023-02-03T04:59:58.025Z,1.93
2023-02-03T05:02:24.843Z,2.07
2023-02-03T05:04:51.591Z,1.20
2023-02-03T05:07:18.385Z,1.87
2023-02-03T05:09:45.206Z,2.17
2023-02-03T05:12:12.004Z,1.83
2023-02-03T05:14:38.832Z,1.70
2023-02-03T05:17:05.658Z,1.37
2023-02-03T05:19:32.466Z,1.77
2023-02-03T05:21:59.234Z,1.50
2023-02-03T05:24:26.065Z,1.83
2023-02-03T05:26:52.885Z,2.13
2023-02-03T05:29:19.692Z,1.53
2023-02-03T05:31:46.545Z,1.33
2023-02-03T05:34:13.366Z,1.43
2023-02-03T05:36:40.180Z,1.13
2023-02-03T05:39:06.974Z,2.00
2023-02-03T05:41:52.074Z,1.47
2023-02-03T05:44:21.396Z,1.17
2023-02-03T05:46:49.118Z,1.17
2023-02-03T05:49:16.599Z,1.30
2023-02-03T05:51:43.699Z,1.50
2023-02-03T05:54:10.915Z,1.90
2023-02-03T05:56:38.324Z,1.70
2023-02-03T05:59:06.205Z,1.47
2023-02-03T06:01:34.195Z,1.97
2023-02-03T06:04:02.367Z,1.73
2023-02-03T06:06:33.775Z,2.00
2023-02-03T06:09:08.863Z,2.17
2023-02-03T06:11:36.461Z,1.20
2023-02-03T06:14:04.343Z,1.77
2023-02-03T06:16:31.509Z,2.50
2023-02-03T06:18:59.651Z,2.37
2023-02-03T06:21:27.118Z,2.43
2023-02-03T06:23:54.715Z,1.47
2023-02-03T06:26:21.664Z,1.17
2023-02-03T06:28:48.502Z,1.73
2023-02-03T06:31:15.402Z,1.83
2023-02-03T06:33:42.317Z,1.40
2023-02-03T06:36:09.445Z,2.60
2023-02-03T06:38:36.210Z,1.80
2023-02-03T06:41:03.033Z,1.47
2023-02-03T06:43:29.810Z,1.80
2023-02-03T06:45:56.615Z,1.57
2023-02-03T06:48:23.802Z,2.50
2023-02-03T06:50:50.703Z,2.03
2023-02-03T06:53:17.550Z,1.57
2023-02-03T06:55:44.331Z,2.03
2023-02-03T06:58:11.109Z,2.50
2023-02-03T07:00:37.898Z,1.97
2023-02-03T07:03:04.796Z,2.47
2023-02-03T07:05:31.695Z,3.97
2023-02-03T07:07:59.102Z,1.97
2023-02-03T07:10:26.037Z,2.17
2023-02-03T07:12:52.961Z,2.87
2023-02-03T07:15:19.863Z,2.20
2023-02-03T07:17:54.413Z,1.93
2023-02-03T07:20:23.457Z,2.43
2023-02-03T07:22:58.212Z,2.23
2023-02-03T07:25:26.127Z,2.93
2023-02-03T07:27:53.342Z,2.23
2023-02-03T07:30:20.333Z,2.27
2023-02-03T07:32:52.125Z,1.87
2023-02-03T07:35:19.988Z,2.73
2023-02-03T07:37:47.073Z,2.17
2023-02-03T07:40:15.078Z,1.90
2023-02-03T07:42:47.170Z,2.47
2023-02-03T07:45:17.441Z,3.73
2023-02-03T07:47:44.768Z,2.13
2023-02-03T07:50:12.945Z,6.60
2023-02-03T07:52:39.888Z,18.20
2023-02-03T07:55:07.635Z,6.13
2023-02-03T07:57:34.604Z,4.40
2023-02-03T08:00:01.441Z,4.97
2023-02-03T08:02:28.209Z,2.67
2023-02-03T08:04:57.916Z,3.27
2023-02-03T08:07:24.762Z,2.30
2023-02-03T08:09:51.631Z,1.90
2023-02-03T08:12:18.441Z,3.50
2023-02-03T08:14:45.477Z,3.03
2023-02-03T08:17:12.256Z,4.43
2023-02-03T08:19:39.014Z,2.77
2023-02-03T08:22:05.877Z,2.13
2023-02-03T08:24:32.643Z,1.57
2023-02-03T08:27:01.409Z,3.50
2023-02-03T08:29:28.207Z,3.27
2023-02-03T08:31:55.128Z,3.17
2023-02-03T08:34:21.961Z,3.63
2023-02-03T08:36:48.795Z,2.20
2023-02-03T08:39:15.552Z,3.23
2023-02-03T08:41:42.309Z,2.40
2023-02-03T08:44:09.046Z,2.77
2023-02-03T08:46:36.433Z,2.60
2023-02-03T08:49:03.630Z,2.40
2023-02-03T08:51:30.432Z,3.13
2023-02-03T08:53:57.206Z,3.33
2023-02-03T08:56:26.344Z,2.67
2023-02-03T08:58:55.897Z,2.77
2023-02-03T09:01:23.020Z,3.80
2023-02-03T09:03:49.888Z,3.50
2023-02-03T09:06:16.824Z,2.27
2023-02-03T09:08:44.569Z,3.20
2023-02-03T09:11:13.419Z,3.40
2023-02-03T09:13:45.336Z,4.05
2023-02-03T09:16:14.554Z,3.93
2023-02-03T09:18:41.363Z,2.20
2023-02-03T09:21:13.896Z,2.40
2023-02-03T09:23:47.750Z,3.83
2023-02-03T09:26:15.936Z,4.50
2023-02-03T09:28:42.803Z,2.47
2023-02-03T09:31:17.888Z,3.10
2023-02-03T09:33:44.783Z,3.70
2023-02-03T09:36:12.505Z,1.43
2023-02-03T09:38:39.900Z,3.53
2023-02-03T09:41:30.716Z,3.43
2023-02-03T09:44:09.598Z,2.90
2023-02-03T09:46:52.097Z,2.83
2023-02-03T09:49:21.789Z,2.23
2023-02-03T09:52:23.035Z,1.80
2023-02-03T09:55:35.446Z,2.17
2023-02-03T09:58:23.443Z,3.50
2023-02-03T10:01:17.320Z,3.07
2023-02-03T10:03:48.889Z,2.37
2023-02-03T10:09:30.860Z,2.73
2023-02-03T10:12:30.543Z,3.25
2023-02-03T10:15:18.536Z,6.40
2023-02-03T10:18:01.226Z,5.15
2023-02-03T10:20:40.959Z,4.33
2023-02-03T10:23:19.979Z,3.27
2023-02-03T10:25:57.701Z,2.17
2023-02-03T10:28:37.425Z,2.60
2023-02-03T10:31:20.910Z,3.55
2023-02-03T10:33:52.832Z,3.25
2023-02-03T10:36:43.574Z,4.60
2023-02-03T10:39:32.109Z,3.20
2023-02-03T10:42:00.561Z,3.28
2023-02-03T10:44:54.268Z,2.50
2023-02-03T10:47:44.285Z,3.67
2023-02-03T10:50:31.376Z,1.70
2023-02-03T10:53:27.114Z,2.38
2023-02-03T10:56:09.076Z,2.23
2023-02-03T10:58:38.688Z,2.40
2023-02-03T11:01:15.230Z,1.80
2023-02-03T11:03:55.045Z,1.40
2023-02-03T11:06:21.853Z,1.70
2023-02-03T11:08:50.988Z,1.90
2023-02-03T11:11:28.425Z,1.52
2023-02-03T11:14:04.372Z,3.75
2023-02-03T11:16:34.569Z,2.92
2023-02-03T11:19:19.588Z,4.22
2023-02-03T11:21:48.198Z,4.43
2023-02-03T11:24:37.958Z,2.80
2023-02-03T11:27:13.267Z,2.47
2023-02-03T11:29:51.153Z,1.83
2023-02-03T11:32:23.032Z,0.95
2023-02-03T11:35:05.193Z,2.78
2023-02-03T11:37:45.210Z,1.35
2023-02-03T11:40:33.891Z,1.25
2023-02-03T11:43:09.830Z,1.65
2023-02-03T11:46:05.189Z,1.35
2023-02-03T11:49:03.099Z,1.38
2023-02-03T11:51:33.083Z,1.77
2023-02-03T11:54:37.149Z,1.17
2023-02-03T11:57:30.533Z,1.42
2023-02-03T12:00:16.780Z,1.15
2023-02-03T12:02:59.989Z,1.35
2023-02-03T12:05:45.144Z,1.25
2023-02-03T12:08:40.240Z,0.88
2023-02-03T12:11:23.909Z,1.45
2023-02-03T12:14:20.464Z,0.60
2023-02-03T12:17:33.062Z,1.20
2023-02-03T12:20:30.924Z,1.10
2023-02-03T12:23:42.393Z,1.13
2023-02-03T12:26:37.763Z,0.90
2023-02-03T12:29:33.465Z,0.70
2023-02-03T12:32:14.912Z,0.77
2023-02-03T12:35:04.249Z,1.17
2023-02-03T12:37:46.475Z,1.15
2023-02-03T12:40:36.742Z,0.38
2023-02-03T12:43:37.399Z,0.70
2023-02-03T12:46:12.905Z,0.40
2023-02-03T12:49:01.004Z,0.80
2023-02-03T12:51:38.500Z,0.75
2023-02-03T12:55:01.130Z,0.50
2023-02-03T12:57:41.912Z,0.43
2023-02-03T13:00:26.837Z,0.40
2023-02-03T13:03:00.646Z,0.50
2023-02-03T13:05:40.057Z,1.17
2023-02-03T13:08:17.147Z,0.65
2023-02-03T13:11:00.156Z,0.55
2023-02-03T13:13:37.874Z,0.10
2023-02-03T13:16:09.786Z,0.63
2023-02-03T13:18:42.591Z,0.60
2023-02-03T13:21:12.727Z,0.30
2023-02-03T13:23:48.285Z,0.50
2023-02-03T13:26:38.032Z,0.50
2023-02-03T13:29:48.565Z,0.70
2023-02-03T13:32:55.351Z,0.40
2023-02-03T13:35:40.798Z,0.45
2023-02-03T13:38:07.470Z,1.88
2023-02-03T13:40:56.408Z,2.50
2023-02-03T13:43:39.149Z,2.17
2023-02-03T13:46:20.317Z,2.40
2023-02-03T13:48:47.387Z,3.55
2023-02-03T13:51:20.680Z,3.53
2023-02-03T13:53:49.968Z,1.20
2023-02-03T13:56:25.574Z,1.10
2023-02-03T13:59:13.493Z,1.27
2023-02-03T14:01:44.506Z,1.10
2023-02-03T14:04:26.493Z,1.13
2023-02-03T14:06:53.156Z,0.73
2023-02-03T14:09:47.349Z,0.70
2023-02-03T14:12:36.304Z,0.63
2023-02-03T14:15:36.559Z,1.58
2023-02-03T14:18:34.486Z,1.25
2023-02-03T14:21:24.774Z,0.75
2023-02-03T14:23:59.512Z,0.95
2023-02-03T14:26:38.482Z,2.53
2023-02-03T14:29:06.707Z,1.27
2023-02-03T14:31:59.226Z,1.15
2023-02-03T14:34:49.961Z,1.10
2023-02-03T14:37:32.776Z,1.13
2023-02-03T14:40:26.223Z,1.13
2023-02-03T14:43:30.694Z,0.70
2023-02-03T14:46:27.029Z,0.82
2023-02-03T14:49:51.099Z,0.90
2023-02-03T14:52:55.259Z,0.88
2023-02-03T14:55:37.833Z,0.90
2023-02-03T14:58:34.174Z,1.48
2023-02-03T15:01:05.007Z,0.73
2023-02-03T15:03:31.990Z,0.50
2023-02-03T15:06:04.869Z,1.85
2023-02-03T15:08:48.519Z,1.20
2023-02-03T15:11:28.230Z,0.82
2023-02-03T15:14:14.018Z,0.85
2023-02-03T15:16:44.141Z,0.60
2023-02-03T15:19:22.168Z,0.95
2023-02-03T15:21:48.965Z,0.70
2023-02-03T15:24:22.110Z,0.47
2023-02-03T15:26:55.182Z,0.70
2023-02-03T15:29:32.208Z,0.40
2023-02-03T15:32:08.845Z,1.65
2023-02-03T15:34:45.283Z,0.68
2023-02-03T15:37:56.282Z,1.00
2023-02-03T15:40:29.049Z,1.40
2023-02-03T15:43:38.041Z,0.32
2023-02-03T15:46:19.117Z,0.70
2023-02-03T15:49:09.202Z,1.55
2023-02-03T15:51:50.573Z,1.35
2023-02-03T15:54:30.554Z,0.85
2023-02-03T15:57:11.462Z,1.33
2023-02-03T15:59:46.253Z,1.33
2023-02-03T16:02:19.681Z,1.58
2023-02-03T16:04:46.568Z,0.85
2023-02-03T16:07:21.336Z,2.17
2023-02-03T16:09:52.037Z,1.25
2023-02-03T16:12:28.156Z,1.02
2023-02-03T16:14:57.148Z,1.02
2023-02-03T16:17:36.809Z,1.92
2023-02-03T16:20:12.480Z,0.65
2023-02-03T16:22:43.424Z,0.95
2023-02-03T16:25:30.151Z,0.90
2023-02-03T16:28:41.804Z,0.82
2023-02-03T16:31:38.045Z,1.10
2023-02-03T16:34:37.585Z,1.13
2023-02-03T16:37:43.392Z,1.38
2023-02-03T16:40:30.470Z,1.20
2023-02-03T16:43:15.694Z,1.60
2023-02-03T16:46:00.903Z,1.35
2023-02-03T16:48:46.384Z,1.00
2023-02-03T16:51:16.102Z,1.50
2023-02-03T16:53:45.563Z,1.13
2023-02-03T16:56:13.623Z,1.25
2023-02-03T16:58:41.029Z,0.82
2023-02-03T17:01:11.412Z,1.35
2023-02-03T17:03:39.107Z,1.50
2023-02-03T17:06:09.847Z,1.25
2023-02-03T17:08:38.234Z,0.88
2023-02-03T17:11:15.636Z,1.90
2023-02-03T17:13:43.049Z,1.55
2023-02-03T17:16:14.656Z,1.40
2023-02-03T17:18:41.480Z,1.30
2023-02-03T17:21:11.676Z,2.88
2023-02-03T17:23:39.179Z,1.58
2023-02-03T17:26:06.308Z,1.70
2023-02-03T17:28:34.157Z,1.77
2023-02-03T17:31:04.909Z,1.40
2023-02-03T17:33:33.571Z,2.03
2023-02-03T17:36:04.825Z,1.52
2023-02-03T17:38:36.816Z,1.48
2023-02-03T17:55:00.494Z,1.08
2023-02-03T17:57:27.324Z,2.90
2023-02-03T17:59:55.266Z,1.38
2023-02-03T18:02:22.566Z,3.38
2023-02-03T18:04:49.336Z,2.10
2023-02-03T18:07:16.132Z,1.40
2023-02-03T18:09:42.870Z,2.25
2023-02-03T18:12:09.659Z,1.25
2023-02-03T18:14:36.410Z,2.28
2023-02-03T18:17:03.257Z,1.20
2023-02-03T18:19:30.066Z,1.60
2023-02-03T18:21:56.956Z,2.30
2023-02-03T18:24:27.900Z,2.47
2023-02-03T18:26:55.554Z,1.27
2023-02-03T18:29:24.253Z,1.60
2023-02-03T18:31:51.112Z,1.27
2023-02-03T18:34:17.951Z,1.52
2023-02-03T18:36:45.630Z,1.80
2023-02-03T18:39:17.875Z,1.30
2023-02-03T18:41:44.658Z,1.30
2023-02-03T18:44:11.474Z,1.55
2023-02-03T18:46:38.402Z,1.63
2023-02-03T18:49:09.346Z,1.23
2023-02-03T18:51:36.151Z,0.80
2023-02-03T18:54:03.870Z,0.82
2023-02-03T18:56:35.263Z,0.93
2023-02-03T18:59:08.940Z,1.00
2023-02-03T19:01:37.232Z,1.10
2023-02-03T19:04:04.718Z,1.52
2023-02-03T19:06:33.712Z,1.00
2023-02-03T19:09:01.349Z,1.23
2023-02-03T19:11:28.417Z,1.45
2023-02-03T19:13:55.388Z,1.52
2023-02-03T19:16:22.326Z,1.75
2023-02-03T19:18:49.141Z,1.85
2023-02-03T19:21:17.367Z,1.85
2023-02-03T19:23:44.426Z,1.60
2023-02-03T19:26:12.142Z,1.45
2023-02-03T19:28:40.349Z,2.20
2023-02-03T19:31:11.679Z,1.50
2023-02-03T19:33:38.723Z,0.90
2023-02-03T19:36:07.081Z,1.23
2023-02-03T19:38:34.443Z,1.55
2023-02-03T19:41:01.737Z,0.98
2023-02-03T19:43:31.006Z,1.52
2023-02-03T19:45:58.266Z,1.67
2023-02-03T19:48:25.268Z,1.83
2023-02-03T19:50:52.034Z,1.48
2023-02-03T19:53:18.971Z,1.90
2023-02-03T19:55:46.651Z,1.75
2023-02-03T19:58:14.234Z,1.40
2023-02-03T20:00:42.330Z,1.10
2023-02-03T20:03:09.595Z,1.23
2023-02-03T20:05:36.558Z,1.13
2023-02-03T20:08:04.717Z,1.00
2023-02-03T20:10:32.767Z,0.80
2023-02-03T20:13:00.748Z,1.73
2023-02-03T20:15:27.999Z,0.85
2023-02-03T20:17:54.924Z,1.08
2023-02-03T20:20:21.960Z,1.35
2023-02-03T20:22:49.442Z,0.85
2023-02-03T20:25:16.896Z,1.70
2023-02-03T20:27:43.910Z,1.13
2023-02-03T20:30:12.237Z,1.60
2023-02-03T20:32:39.176Z,1.42
2023-02-03T20:35:06.739Z,1.60
2023-02-03T20:37:35.900Z,1.20
2023-02-03T20:40:09.873Z,1.08
2023-02-03T20:42:36.872Z,1.08
2023-02-03T20:45:17.016Z,1.02
2023-02-03T20:47:44.775Z,1.10
2023-02-03T20:50:28.942Z,1.48
2023-02-03T20:52:58.737Z,1.20
2023-02-03T20:55:25.563Z,1.33
2023-02-03T20:57:54.944Z,2.00
2023-02-03T21:00:26.409Z,1.17
2023-02-03T21:05:42.134Z,1.50
2023-02-03T21:08:17.972Z,2.10
2023-02-03T21:10:46.339Z,2.08
2023-02-03T21:13:25.259Z,1.42
2023-02-03T21:15:56.023Z,2.28
2023-02-03T21:18:39.865Z,1.50
2023-02-03T21:21:16.017Z,1.80
2023-02-03T21:23:47.392Z,1.77
2023-02-03T21:26:22.896Z,2.38
2023-02-03T21:28:59.183Z,1.42
2023-02-03T21:31:28.926Z,2.08
2023-02-03T21:34:01.761Z,1.90
2023-02-03T21:36:35.322Z,1.25
2023-02-03T21:39:02.927Z,2.10
2023-02-03T21:41:34.171Z,1.45
2023-02-03T21:44:01.371Z,2.13
2023-02-03T21:46:32.650Z,1.83
2023-02-03T21:49:01.689Z,2.63
2023-02-03T21:51:38.749Z,2.00
2023-02-03T21:54:30.374Z,1.60
2023-02-03T21:59:33.192Z,2.60
2023-02-03T22:02:00.018Z,3.25
2023-02-03T22:04:29.067Z,3.55
2023-02-03T22:06:56.408Z,4.35
2023-02-03T22:09:26.444Z,2.65
2023-02-03T22:11:53.476Z,3.72
2023-02-03T22:14:21.018Z,3.63
2023-02-03T22:16:48.062Z,4.72
2023-02-03T22:19:17.406Z,3.45
2023-02-03T22:21:44.766Z,4.80
2023-02-03T22:24:11.803Z,3.35
2023-02-03T22:26:38.863Z,4.80
2023-02-03T22:29:05.830Z,3.30
2023-02-03T22:31:32.962Z,4.68
2023-02-03T22:33:59.841Z,2.60
2023-02-03T22:36:26.716Z,2.70
2023-02-03T22:38:53.531Z,3.63
2023-02-03T22:41:20.944Z,4.73
2023-02-03T22:43:47.982Z,5.60
2023-02-03T22:46:14.899Z,3.70
2023-02-03T22:48:41.788Z,3.85
2023-02-03T22:51:08.703Z,3.95
2023-02-03T22:53:35.531Z,2.20
2023-02-03T22:56:02.326Z,3.47
2023-02-03T22:58:29.100Z,3.53
2023-02-03T23:00:55.867Z,6.70
2023-02-03T23:03:22.821Z,5.27
2023-02-03T23:05:49.652Z,6.27
2023-02-03T23:08:16.419Z,3.67
2023-02-03T23:10:43.262Z,3.13
2023-02-03T23:13:10.090Z,5.17
2023-02-03T23:15:36.988Z,2.33
2023-02-03T23:18:04.123Z,4.63
2023-02-03T23:20:31.236Z,5.03
2023-02-03T23:22:58.166Z,3.72
2023-02-03T23:25:24.965Z,4.60
2023-02-03T23:27:51.903Z,5.85
2023-02-03T23:30:18.987Z,3.43
2023-02-03T23:32:45.758Z,5.00
2023-02-03T23:35:31.629Z,7.03
2023-02-03T23:37:58.538Z,3.95
2023-02-03T23:40:25.308Z,4.85
2023-02-03T23:42:52.087Z,3.87
2023-02-03T23:45:18.965Z,2.85
2023-02-03T23:47:46.491Z,2.60
2023-02-03T23:50:16.197Z,4.90
2023-02-03T23:52:43.060Z,2.22
2023-02-03T23:55:16.669Z,3.65
2023-02-03T23:57:43.759Z,5.82
